< < Back
Terminal Aerodrome Forecast


Current Version              Previous Versions:   1  2  3  4  5  6  7  8  9  

Terminal Aerodrome Forecast

960
FTUS42 KFFC 272332
TAFPDK
TAF
KPDK 272332Z 2800/2824 VRB04KT P6SM FEW050 SCT120
     FM280100 00000KT P6SM SCT250
     FM281500 34003KT P6SM FEW040
     FM281800 32006KT P6SM SCT050=



Latest METAR

989
SAUS70 KWBC 280100 RRD
MTRPDK
METAR KPDK 280053Z 00000KT 10SM CLR 28/22 A2997 RMK AO2 SLP128
T02830217


USA.gov is the U.S. government's official web portal to all federal, state and local government web resources and services.